Time,TemperatureF,DewpointF,PressureIn,WindDirection,WindDirectionDegrees,WindSpeedMPH,WindSpeedGustMPH,Humidity,HourlyPrecipIn,Conditions,Clouds,dailyrainin,SoftwareType,DateUTC
2013-04-30 00:00:00,54.1,51.2,29.91,SSE,158,2.0,4.0,90,0.00,,SKC,0.00,VWS V14.01,2013-04-30 04:00:00,
2013-04-30 00:04:00,54.1,51.0,29.91,SSE,152,2.0,3.0,90,0.00,,,0.00,weatherlink.com 1.10,2013-04-30 04:04:00,
2013-04-30 00:19:00,53.6,51.0,29.91,SSE,150,0.0,2.0,90,0.00,,,0.00,weatherlink.com 1.10,2013-04-30 04:19:00,
2013-04-30 00:30:00,53.1,50.2,29.91,SSE,158,1.0,3.0,90,0.00,,SKC,0.00,VWS V14.01,2013-04-30 04:30:00,
2013-04-30 00:34:00,53.0,50.0,29.91,SE,140,1.0,2.0,90,0.00,,,0.00,weatherlink.com 1.10,2013-04-30 04:34:00,
2013-04-30 00:49:00,53.2,51.0,29.92,SSE,153,1.0,5.0,91,0.00,,,0.00,weatherlink.com 1.10,2013-04-30 04:49:00,
2013-04-30 01:00:00,52.4,49.8,29.92,SE,135,1.0,5.0,91,0.00,,SKC,0.00,VWS V14.01,2013-04-30 05:00:00,
2013-04-30 01:04:00,52.3,50.0,29.92,SE,146,1.0,2.0,90,0.00,,,0.00,weatherlink.com 1.10,2013-04-30 05:04:00,
2013-04-30 01:19:00,52.5,50.0,29.93,SSE,147,1.0,3.0,91,0.00,,,0.00,weatherlink.com 1.10,2013-04-30 05:19:00,
2013-04-30 01:30:00,51.7,49.2,29.93,SSE,158,1.0,3.0,91,0.00,,SKC,0.00,VWS V14.01,2013-04-30 05:30:00,
2013-04-30 01:34:00,51.7,49.0,29.93,SSE,148,1.0,2.0,91,0.00,,,0.00,weatherlink.com 1.10,2013-04-30 05:34:00,
2013-04-30 01:49:00,51.9,50.0,29.93,SE,144,1.0,3.0,92,0.00,,,0.00,weatherlink.com 1.10,2013-04-30 05:49:00,
2013-04-30 02:00:00,51.6,49.4,29.93,SE,135,1.0,3.0,92,0.00,,SKC,0.00,VWS V14.01,2013-04-30 06:00:00,
2013-04-30 02:04:00,51.6,49.0,29.93,SE,144,0.0,3.0,92,0.00,,,0.00,weatherlink.com 1.10,2013-04-30 06:04:00,
2013-04-30 02:19:00,51.6,49.0,29.93,SSE,151,2.0,3.0,92,0.00,,,0.00,weatherlink.com 1.10,2013-04-30 06:19:00,
2013-04-30 02:30:00,51.5,49.3,29.93,SSE,158,1.0,3.0,92,0.00,,SKC,0.00,VWS V14.01,2013-04-30 06:30:00,
2013-04-30 02:34:00,51.5,49.0,29.93,SSE,152,1.0,3.0,92,0.00,,,0.00,weatherlink.com 1.10,2013-04-30 06:34:00,
2013-04-30 02:50:00,51.5,49.0,29.93,SSE,154,1.0,3.0,92,0.00,,,0.00,weatherlink.com 1.10,2013-04-30 06:50:00,
2013-04-30 03:00:00,50.9,48.7,29.93,SSE,158,1.0,3.0,92,0.00,,SKC,0.00,VWS V14.01,2013-04-30 07:00:00,
2013-04-30 03:04:00,50.9,49.0,29.93,SSE,150,1.0,2.0,92,0.00,,,0.00,weatherlink.com 1.10,2013-04-30 07:04:00,
2013-04-30 03:19:00,50.8,49.0,29.93,SE,134,2.0,4.0,93,0.00,,,0.00,weatherlink.com 1.10,2013-04-30 07:19:00,
2013-04-30 03:30:00,50.9,49.0,29.94,SE,135,1.0,5.0,93,0.00,,SKC,0.00,VWS V14.01,2013-04-30 07:30:00,
2013-04-30 03:34:00,50.9,49.0,29.94,SE,134,2.0,3.0,93,0.00,,,0.00,weatherlink.com 1.10,2013-04-30 07:34:00,
2013-04-30 03:49:00,50.8,49.0,29.94,SE,146,1.0,5.0,93,0.00,,,0.00,weatherlink.com 1.10,2013-04-30 07:49:00,
2013-04-30 04:00:00,50.8,48.8,29.94,SE,135,1.0,5.0,93,0.00,,SKC,0.00,VWS V14.01,2013-04-30 08:00:00,
2013-04-30 04:04:00,50.7,49.0,29.94,SSE,151,0.0,3.0,93,0.00,,,0.00,weatherlink.com 1.10,2013-04-30 08:04:00,
2013-04-30 04:20:00,50.4,49.0,29.94,SE,136,1.0,5.0,93,0.00,,,0.00,weatherlink.com 1.10,2013-04-30 08:20:00,
2013-04-30 04:30:00,50.5,48.6,29.94,SE,135,2.0,7.0,93,0.00,,SKC,0.00,VWS V14.01,2013-04-30 08:30:00,
2013-04-30 04:35:00,50.5,49.0,29.94,SE,126,1.0,6.0,93,0.00,,,0.00,weatherlink.com 1.10,2013-04-30 08:35:00,
2013-04-30 04:50:00,51.2,49.0,29.94,SSE,148,0.0,5.0,93,0.00,,,0.00,weatherlink.com 1.10,2013-04-30 08:50:00,
2013-04-30 05:00:00,50.8,48.8,29.94,SE,135,2.0,6.0,93,0.00,,SKC,0.00,VWS V14.01,2013-04-30 09:00:00,
2013-04-30 05:05:00,50.7,49.0,29.94,SE,135,2.0,6.0,93,0.00,,,0.00,weatherlink.com 1.10,2013-04-30 09:05:00,
2013-04-30 05:20:00,50.4,49.0,29.94,SE,142,1.0,4.0,93,0.00,,,0.00,weatherlink.com 1.10,2013-04-30 09:20:00,
2013-04-30 05:30:00,50.4,48.7,29.94,SE,135,1.0,5.0,94,0.00,,SKC,0.00,VWS V14.01,2013-04-30 09:30:00,
2013-04-30 05:35:00,50.4,49.0,29.94,SE,136,2.0,4.0,93,0.00,,,0.00,weatherlink.com 1.10,2013-04-30 09:35:00,
2013-04-30 05:50:00,49.8,48.0,29.93,SSE,148,2.0,4.0,93,0.00,,,0.00,weatherlink.com 1.10,2013-04-30 09:50:00,
2013-04-30 06:00:00,49.7,48.0,29.94,SE,135,2.0,4.0,94,0.00,,SKC,0.00,VWS V14.01,2013-04-30 10:00:00,
2013-04-30 06:05:00,49.7,48.0,29.94,SE,144,0.0,3.0,94,0.00,,,0.00,weatherlink.com 1.10,2013-04-30 10:05:00,
2013-04-30 06:20:00,49.2,47.0,29.94,SSE,151,2.0,3.0,93,0.00,,,0.00,weatherlink.com 1.10,2013-04-30 10:20:00,
2013-04-30 06:30:00,49.7,48.0,29.94,SE,135,2.0,7.0,94,0.00,,SKC,0.00,VWS V14.01,2013-04-30 10:30:00,
2013-04-30 06:35:00,49.8,48.0,29.94,SSE,162,1.0,7.0,94,0.00,,,0.00,weatherlink.com 1.10,2013-04-30 10:35:00,
2013-04-30 06:50:00,50.1,49.0,29.94,SE,134,0.0,7.0,94,0.00,,,0.00,weatherlink.com 1.10,2013-04-30 10:50:00,
2013-04-30 07:00:00,50.1,48.4,29.95,SE,135,2.0,7.0,94,0.00,,SKC,0.00,VWS V14.01,2013-04-30 11:00:00,
2013-04-30 07:05:00,50.1,49.0,29.95,SSE,151,3.0,6.0,94,0.00,,,0.00,weatherlink.com 1.10,2013-04-30 11:05:00,
2013-04-30 07:20:00,50.7,49.0,29.95,SSE,148,4.0,6.0,94,0.00,,,0.00,weatherlink.com 1.10,2013-04-30 11:20:00,
2013-04-30 07:30:00,51.2,49.5,29.96,SSE,158,2.0,6.0,94,0.00,,SKC,0.00,VWS V14.01,2013-04-30 11:30:00,
2013-04-30 07:35:00,51.3,50.0,29.96,SSE,155,2.0,5.0,94,0.00,,,0.00,weatherlink.com 1.10,2013-04-30 11:35:00,
2013-04-30 07:50:00,52.3,51.0,29.98,SSE,157,3.0,7.0,94,0.00,,,0.00,weatherlink.com 1.10,2013-04-30 11:50:00,
2013-04-30 08:00:00,53.0,51.3,29.98,SSE,158,2.0,7.0,94,0.00,,SKC,0.00,VWS V14.01,2013-04-30 12:00:00,
2013-04-30 08:05:00,53.2,52.0,29.98,SSE,154,2.0,6.0,94,0.00,,,0.00,weatherlink.com 1.10,2013-04-30 12:05:00,
2013-04-30 08:20:00,54.1,53.0,29.99,SSE,163,3.0,7.0,94,0.00,,,0.00,weatherlink.com 1.10,2013-04-30 12:20:00,
2013-04-30 08:30:00,54.8,53.1,29.99,SSE,158,3.0,8.0,94,0.00,,SKC,0.00,VWS V14.01,2013-04-30 12:30:00,
2013-04-30 08:35:00,55.0,53.0,29.98,SSE,147,7.0,9.0,93,0.00,,,0.00,weatherlink.com 1.10,2013-04-30 12:35:00,
2013-04-30 08:50:00,56.1,54.0,29.98,SE,144,6.0,10.0,92,0.00,,,0.00,weatherlink.com 1.10,2013-04-30 12:50:00,
2013-04-30 09:00:00,57.3,54.7,29.99,SSE,158,5.0,10.0,91,0.00,,SKC,0.00,VWS V14.01,2013-04-30 13:00:00,
2013-04-30 09:05:00,57.3,55.0,29.99,SSE,161,3.0,9.0,90,0.00,,,0.00,weatherlink.com 1.10,2013-04-30 13:05:00,
2013-04-30 09:20:00,59.0,56.0,29.99,ESE,117,9.0,13.0,90,0.00,,,0.00,weatherlink.com 1.10,2013-04-30 13:20:00,
2013-04-30 09:30:00,59.7,56.2,29.99,SSE,158,6.0,13.0,88,0.00,,SKC,0.00,VWS V14.01,2013-04-30 13:30:00,
2013-04-30 09:35:00,59.9,56.0,29.99,SSE,153,5.0,11.0,87,0.00,,,0.00,weatherlink.com 1.10,2013-04-30 13:35:00,
2013-04-30 09:50:00,60.9,56.0,29.99,SSE,151,7.0,9.0,85,0.00,,,0.00,weatherlink.com 1.10,2013-04-30 13:50:00,
2013-04-30 10:00:00,62.4,57.8,30.00,SSE,158,5.0,12.0,85,0.00,,SKC,0.00,VWS V14.01,2013-04-30 14:00:00,
2013-04-30 10:05:00,62.4,57.0,30.00,SSE,168,4.0,10.0,83,0.00,,,0.00,weatherlink.com 1.10,2013-04-30 14:05:00,
2013-04-30 10:20:00,63.0,57.0,29.99,SSE,164,4.0,13.0,82,0.00,,,0.00,weatherlink.com 1.10,2013-04-30 14:20:00,
2013-04-30 10:30:00,63.8,57.5,29.99,SSE,158,7.0,14.0,80,0.00,,SKC,0.00,VWS V14.01,2013-04-30 14:30:00,
2013-04-30 10:35:00,64.0,58.0,29.99,SE,138,7.0,13.0,81,0.00,,,0.00,weatherlink.com 1.10,2013-04-30 14:35:00,
2013-04-30 10:50:00,64.2,57.0,29.99,SE,144,11.0,14.0,77,0.00,,,0.00,weatherlink.com 1.10,2013-04-30 14:50:00,
2013-04-30 11:00:00,64.5,56.8,29.99,SSE,158,7.0,16.0,76,0.00,,SKC,0.00,VWS V14.01,2013-04-30 15:00:00,
2013-04-30 11:05:00,64.7,57.0,29.99,South,185,7.0,12.0,76,0.00,,,0.00,weatherlink.com 1.10,2013-04-30 15:05:00,
2013-04-30 11:20:00,66.5,59.0,29.99,SSE,160,7.0,14.0,77,0.00,,,0.00,weatherlink.com 1.10,2013-04-30 15:20:00,
2013-04-30 11:30:00,66.9,58.0,29.99,SSE,158,7.0,14.0,73,0.00,,SKC,0.00,VWS V14.01,2013-04-30 15:30:00,
2013-04-30 11:36:00,66.9,58.0,30.00,ESE,120,8.0,16.0,74,0.00,,,0.00,weatherlink.com 1.10,2013-04-30 15:36:00,
2013-04-30 11:51:00,67.7,60.0,29.99,SSE,150,5.0,15.0,75,0.00,,,0.00,weatherlink.com 1.10,2013-04-30 15:51:00,
2013-04-30 12:00:00,68.2,59.6,30.00,SSE,158,7.0,16.0,74,0.00,,SKC,0.00,VWS V14.01,2013-04-30 16:00:00,
2013-04-30 12:06:00,68.1,59.0,29.99,SE,135,9.0,13.0,73,0.00,,,0.00,weatherlink.com 1.10,2013-04-30 16:06:00,
2013-04-30 12:21:00,68.9,60.0,29.99,SSE,161,7.0,14.0,72,0.00,,,0.00,weatherlink.com 1.10,2013-04-30 16:21:00,
2013-04-30 12:30:00,69.5,60.5,29.99,SSE,158,7.0,16.0,73,0.00,,SKC,0.00,VWS V14.01,2013-04-30 16:30:00,
2013-04-30 12:36:00,69.5,60.0,29.98,ESE,123,8.0,15.0,72,0.00,,,0.00,weatherlink.com 1.10,2013-04-30 16:36:00,
2013-04-30 12:51:00,70.3,60.0,29.98,SSE,153,3.0,16.0,70,0.00,,,0.00,weatherlink.com 1.10,2013-04-30 16:51:00,
2013-04-30 13:00:00,70.3,59.2,29.99,SSE,158,6.0,16.0,68,0.00,,SKC,0.00,VWS V14.01,2013-04-30 17:00:00,
2013-04-30 13:06:00,70.2,60.0,29.99,SSE,163,3.0,12.0,69,0.00,,,0.00,weatherlink.com 1.10,2013-04-30 17:06:00,
2013-04-30 13:21:00,70.6,61.0,29.99,ESE,111,10.0,13.0,72,0.00,,,0.00,weatherlink.com 1.10,2013-04-30 17:21:00,
2013-04-30 13:30:00,70.4,61.0,29.99,SE,135,6.0,15.0,72,0.00,,SKC,0.00,VWS V14.01,2013-04-30 17:30:00,
2013-04-30 13:36:00,70.4,59.0,29.99,ESE,123,4.0,10.0,68,0.00,,,0.00,weatherlink.com 1.10,2013-04-30 17:36:00,
2013-04-30 13:51:00,70.9,61.0,29.98,SE,137,3.0,12.0,72,0.00,,,0.00,weatherlink.com 1.10,2013-04-30 17:51:00,
2013-04-30 14:00:00,70.4,59.8,29.98,ESE,112,7.0,15.0,69,0.00,,SKC,0.00,VWS V14.01,2013-04-30 18:00:00,
2013-04-30 14:06:00,70.6,60.0,29.98,ESE,113,10.0,15.0,69,0.00,,,0.00,weatherlink.com 1.10,2013-04-30 18:06:00,
2013-04-30 14:21:00,71.9,60.0,29.98,SSE,159,9.0,11.0,67,0.00,,,0.00,weatherlink.com 1.10,2013-04-30 18:21:00,
2013-04-30 14:30:00,72.8,61.6,29.97,SE,135,6.0,14.0,68,0.00,,SKC,0.00,VWS V14.01,2013-04-30 18:30:00,
2013-04-30 14:36:00,73.2,63.0,29.97,ESE,120,7.0,14.0,70,0.00,,,0.00,weatherlink.com 1.10,2013-04-30 18:36:00,
2013-04-30 14:51:00,72.4,60.0,29.97,ESE,105,17.0,18.0,66,0.00,,,0.00,weatherlink.com 1.10,2013-04-30 18:51:00,
2013-04-30 15:00:00,72.8,61.2,29.96,ESE,112,8.0,18.0,67,0.00,,SKC,0.00,VWS V14.01,2013-04-30 19:00:00,
2013-04-30 15:06:00,72.8,60.0,29.96,SE,129,8.0,17.0,64,0.00,,,0.00,weatherlink.com 1.10,2013-04-30 19:06:00,
2013-04-30 15:21:00,73.8,61.0,29.96,SE,126,8.0,17.0,65,0.00,,,0.00,weatherlink.com 1.10,2013-04-30 19:21:00,
2013-04-30 15:30:00,74.6,62.9,29.96,SE,135,8.0,17.0,67,0.00,,SKC,0.00,VWS V14.01,2013-04-30 19:30:00,
2013-04-30 15:36:00,74.8,62.0,29.96,SE,146,2.0,15.0,65,0.00,,,0.00,weatherlink.com 1.10,2013-04-30 19:36:00,
2013-04-30 15:51:00,74.7,62.0,29.95,ESE,123,8.0,17.0,64,0.00,,,0.00,weatherlink.com 1.10,2013-04-30 19:51:00,
2013-04-30 16:00:00,74.4,61.0,29.95,SE,135,7.0,17.0,63,0.00,,SKC,0.00,VWS V14.01,2013-04-30 20:00:00,
2013-04-30 16:06:00,74.5,60.0,29.95,SSE,150,4.0,12.0,61,0.00,,,0.00,weatherlink.com 1.10,2013-04-30 20:06:00,
2013-04-30 16:21:00,74.7,61.0,29.95,SE,134,10.0,14.0,62,0.00,,,0.00,weatherlink.com 1.10,2013-04-30 20:21:00,
2013-04-30 16:30:00,74.9,60.6,29.95,SE,135,6.0,14.0,61,0.00,,SKC,0.00,VWS V14.01,2013-04-30 20:30:00,
2013-04-30 16:36:00,74.8,60.0,29.94,SSE,157,4.0,13.0,61,0.00,,,0.00,weatherlink.com 1.10,2013-04-30 20:36:00,
2013-04-30 16:51:00,74.0,60.0,29.94,SSE,155,4.0,11.0,62,0.00,,,0.00,weatherlink.com 1.10,2013-04-30 20:51:00,
2013-04-30 17:00:00,74.4,61.4,29.94,SSE,158,5.0,13.0,64,0.00,,SKC,0.00,VWS V14.01,2013-04-30 21:00:00,
2013-04-30 17:06:00,74.8,62.0,29.94,SSE,164,6.0,13.0,64,0.00,,,0.00,weatherlink.com 1.10,2013-04-30 21:06:00,
2013-04-30 17:21:00,75.4,60.0,29.94,SSE,160,4.0,13.0,60,0.00,,,0.00,weatherlink.com 1.10,2013-04-30 21:21:00,
2013-04-30 17:30:00,75.8,61.4,29.94,SSE,158,6.0,14.0,61,0.00,,SKC,0.00,VWS V14.01,2013-04-30 21:30:00,
2013-04-30 17:36:00,75.9,61.0,29.94,SE,139,6.0,12.0,60,0.00,,,0.00,weatherlink.com 1.10,2013-04-30 21:36:00,
2013-04-30 17:51:00,75.3,62.0,29.94,SSE,148,4.0,11.0,63,0.00,,,0.00,weatherlink.com 1.10,2013-04-30 21:51:00,
2013-04-30 18:00:00,74.9,60.6,29.94,SSE,158,5.0,12.0,61,0.00,,SKC,0.00,VWS V14.01,2013-04-30 22:00:00,
2013-04-30 18:06:00,74.9,60.0,29.94,SSE,151,2.0,10.0,61,0.00,,,0.00,weatherlink.com 1.10,2013-04-30 22:06:00,
2013-04-30 18:21:00,74.2,60.0,29.94,SSE,150,4.0,14.0,61,0.00,,,0.00,weatherlink.com 1.10,2013-04-30 22:21:00,
2013-04-30 18:36:00,73.7,60.0,29.95,East,101,3.0,11.0,62,0.00,,,0.00,weatherlink.com 1.10,2013-04-30 22:36:00,
2013-04-30 18:51:00,73.3,59.5,29.95,SE,144,4.0,4.0,62,0.00,,SKC,0.00,VWS V14.01,2013-04-30 22:51:00,
2013-04-30 18:56:00,73.0,59.2,29.95,SSE,155,3.0,5.0,62,0.00,,SKC,0.00,VWS V14.01,2013-04-30 22:56:00,
2013-04-30 19:01:00,73.0,60.1,29.95,SE,143,2.0,4.0,64,0.00,,SKC,0.00,VWS V14.01,2013-04-30 23:01:00,
2013-04-30 19:06:00,72.9,60.0,29.95,SE,140,2.0,5.0,64,0.00,,SKC,0.00,VWS V14.01,2013-04-30 23:06:00,
2013-04-30 19:11:00,72.7,59.4,29.96,SSE,156,3.0,6.0,63,0.00,,SKC,0.00,VWS V14.01,2013-04-30 23:11:00,
2013-04-30 19:16:00,72.7,59.8,29.96,SE,142,1.0,8.0,64,0.00,,SKC,0.00,VWS V14.01,2013-04-30 23:16:00,
2013-04-30 19:21:00,72.6,60.2,29.96,ESE,123,3.0,7.0,65,0.00,,SKC,0.00,VWS V14.01,2013-04-30 23:21:00,
2013-04-30 19:26:00,72.5,59.6,29.96,ESE,117,1.0,4.0,64,0.00,,SKC,0.00,VWS V14.01,2013-04-30 23:26:00,
2013-04-30 19:31:00,72.5,59.6,29.96,ESE,119,3.0,6.0,64,0.00,,SKC,0.00,VWS V14.01,2013-04-30 23:31:00,
2013-04-30 19:36:00,72.5,60.1,29.96,SSE,151,3.0,5.0,65,0.00,,SKC,0.00,VWS V14.01,2013-04-30 23:36:00,
2013-04-30 19:41:00,72.3,59.5,29.96,SE,145,3.0,5.0,64,0.00,,SKC,0.00,VWS V14.01,2013-04-30 23:41:00,
2013-04-30 19:46:00,72.0,59.6,29.97,SE,132,3.0,5.0,65,0.00,,SKC,0.00,VWS V14.01,2013-04-30 23:46:00,
2013-04-30 19:51:00,71.7,59.3,29.97,SE,132,3.0,7.0,65,0.00,,SKC,0.00,VWS V14.01,2013-04-30 23:51:00,
2013-04-30 19:56:00,71.3,58.9,29.97,SE,141,3.0,5.0,65,0.00,,SKC,0.00,VWS V14.01,2013-04-30 23:56:00,
2013-04-30 20:01:00,70.9,59.0,29.97,SSE,151,2.0,4.0,66,0.00,,SKC,0.00,VWS V14.01,2013-05-01 00:01:00,
2013-04-30 20:06:00,69.8,59.6,29.97,SSE,158,1.0,3.0,70,0.00,,SKC,0.00,VWS V14.01,2013-05-01 00:06:00,
2013-04-30 20:11:00,69.1,59.3,29.97,SSE,151,1.0,3.0,71,0.00,,SKC,0.00,VWS V14.01,2013-05-01 00:11:00,
2013-04-30 20:16:00,69.0,59.2,29.97,SSE,148,2.0,3.0,71,0.00,,SKC,0.00,VWS V14.01,2013-05-01 00:16:00,
2013-04-30 20:22:00,68.4,59.0,29.98,SE,144,1.0,3.0,72,0.00,,SKC,0.00,VWS V14.01,2013-05-01 00:22:00,
2013-04-30 20:27:00,67.7,58.7,29.98,SSE,151,2.0,4.0,73,0.00,,SKC,0.00,VWS V14.01,2013-05-01 00:27:00,
2013-04-30 20:32:00,67.2,58.3,29.98,SSE,150,1.0,3.0,73,0.00,,SKC,0.00,VWS V14.01,2013-05-01 00:32:00,
2013-04-30 20:37:00,66.8,58.3,29.98,SSE,150,1.0,3.0,74,0.00,,SKC,0.00,VWS V14.01,2013-05-01 00:37:00,
2013-04-30 20:42:00,66.4,57.9,29.98,SSE,148,2.0,3.0,74,0.00,,SKC,0.00,VWS V14.01,2013-05-01 00:42:00,
2013-04-30 20:47:00,66.3,57.8,29.98,SSE,148,1.0,2.0,74,0.00,,SKC,0.00,VWS V14.01,2013-05-01 00:47:00,
2013-04-30 20:52:00,65.8,57.7,29.98,SSE,147,3.0,3.0,75,0.00,,SKC,0.00,VWS V14.01,2013-05-01 00:52:00,
2013-04-30 20:57:00,65.2,57.1,29.98,SSE,148,2.0,3.0,75,0.00,,SKC,0.00,VWS V14.01,2013-05-01 00:57:00,
2013-04-30 21:02:00,64.8,57.1,29.98,SSE,148,3.0,3.0,76,0.00,,SKC,0.00,VWS V14.01,2013-05-01 01:02:00,
2013-04-30 21:07:00,64.3,57.0,29.98,SE,136,3.0,3.0,77,0.00,,SKC,0.00,VWS V14.01,2013-05-01 01:07:00,
2013-04-30 21:12:00,64.0,56.7,29.98,SSE,148,3.0,3.0,77,0.00,,SKC,0.00,VWS V14.01,2013-05-01 01:12:00,
2013-04-30 21:17:00,64.0,56.7,29.99,SSE,151,1.0,2.0,77,0.00,,SKC,0.00,VWS V14.01,2013-05-01 01:17:00,
2013-04-30 21:22:00,63.7,56.7,29.99,SSE,147,2.0,2.0,78,0.00,,SKC,0.00,VWS V14.01,2013-05-01 01:22:00,
2013-04-30 21:27:00,63.6,56.6,29.99,SE,145,1.0,2.0,78,0.00,,SKC,0.00,VWS V14.01,2013-05-01 01:27:00,
2013-04-30 21:32:00,63.4,56.1,29.99,SE,140,3.0,3.0,77,0.00,,SKC,0.00,VWS V14.01,2013-05-01 01:32:00,
2013-04-30 21:37:00,63.1,56.1,30.00,SSE,148,1.0,3.0,78,0.00,,SKC,0.00,VWS V14.01,2013-05-01 01:37:00,
2013-04-30 21:42:00,63.3,56.3,30.00,SSE,148,1.0,3.0,78,0.00,,SKC,0.00,VWS V14.01,2013-05-01 01:42:00,
2013-04-30 21:47:00,63.2,55.9,30.00,SE,146,2.0,2.0,77,0.00,,SKC,0.00,VWS V14.01,2013-05-01 01:47:00,
2013-04-30 21:52:00,62.9,56.0,30.00,SE,146,1.0,2.0,78,0.00,,,0.00,weatherlink.com 1.10,2013-05-01 01:52:00,
2013-04-30 21:57:00,62.6,55.7,30.00,SE,146,0.0,2.0,78,0.00,,SKC,0.00,VWS V14.01,2013-05-01 01:57:00,
2013-04-30 22:02:00,62.3,55.4,30.00,SE,138,2.0,4.0,78,0.00,,SKC,0.00,VWS V14.01,2013-05-01 02:02:00,
2013-04-30 22:07:00,62.1,55.5,30.00,ESE,123,2.0,3.0,79,0.00,,SKC,0.00,VWS V14.01,2013-05-01 02:07:00,
2013-04-30 22:12:00,61.9,55.3,30.01,ESE,123,2.0,2.0,79,0.00,,SKC,0.00,VWS V14.01,2013-05-01 02:12:00,
2013-04-30 22:17:00,61.7,55.1,30.01,ESE,123,2.0,3.0,79,0.00,,SKC,0.00,VWS V14.01,2013-05-01 02:17:00,
2013-04-30 22:22:00,61.5,54.9,30.01,ESE,121,2.0,3.0,79,0.00,,SKC,0.00,VWS V14.01,2013-05-01 02:22:00,
2013-04-30 22:27:00,61.3,55.1,30.01,SE,130,3.0,4.0,80,0.00,,SKC,0.00,VWS V14.01,2013-05-01 02:27:00,
2013-04-30 22:32:00,61.1,54.9,30.01,SE,139,2.0,4.0,80,0.00,,SKC,0.00,VWS V14.01,2013-05-01 02:32:00,
2013-04-30 22:37:00,61.1,54.9,30.01,SE,137,2.0,3.0,80,0.00,,SKC,0.00,VWS V14.01,2013-05-01 02:37:00,
2013-04-30 22:42:00,61.2,55.0,30.01,SE,132,1.0,4.0,80,0.00,,SKC,0.00,VWS V14.01,2013-05-01 02:42:00,
2013-04-30 22:47:00,61.2,55.0,30.01,SE,133,1.0,3.0,80,0.00,,SKC,0.00,VWS V14.01,2013-05-01 02:47:00,
2013-04-30 22:52:00,60.9,54.7,30.01,SE,134,1.0,3.0,80,0.00,,SKC,0.00,VWS V14.01,2013-05-01 02:52:00,
2013-04-30 22:57:00,60.7,54.8,30.01,SE,134,3.0,3.0,81,0.00,,SKC,0.00,VWS V14.01,2013-05-01 02:57:00,
2013-04-30 23:02:00,60.5,54.7,30.01,SE,133,3.0,3.0,81,0.00,,SKC,0.00,VWS V14.01,2013-05-01 03:02:00,
2013-04-30 23:07:00,60.4,54.5,30.01,SE,133,2.0,3.0,81,0.00,,SKC,0.00,VWS V14.01,2013-05-01 03:07:00,
2013-04-30 23:12:00,60.4,54.5,30.01,SE,133,2.0,2.0,81,0.00,,SKC,0.00,VWS V14.01,2013-05-01 03:12:00,
2013-04-30 23:17:00,60.4,54.5,30.01,SE,133,2.0,2.0,81,0.00,,SKC,0.00,VWS V14.01,2013-05-01 03:17:00,
2013-04-30 23:22:00,60.2,54.4,30.01,SE,135,3.0,3.0,81,0.00,,SKC,0.00,VWS V14.01,2013-05-01 03:22:00,
2013-04-30 23:28:00,60.3,54.5,30.01,SE,132,2.0,3.0,81,0.00,,SKC,0.00,VWS V14.01,2013-05-01 03:28:00,
2013-04-30 23:33:00,60.4,54.2,30.01,SE,126,2.0,3.0,80,0.00,,SKC,0.00,VWS V14.01,2013-05-01 03:33:00,
2013-04-30 23:38:00,60.4,54.2,30.02,SE,132,3.0,4.0,80,0.00,,SKC,0.00,VWS V14.01,2013-05-01 03:38:00,
2013-04-30 23:43:00,60.2,54.0,30.02,SE,136,1.0,3.0,80,0.00,,SKC,0.00,VWS V14.01,2013-05-01 03:43:00,
2013-04-30 23:48:00,60.1,53.9,30.02,SE,134,2.0,3.0,80,0.00,,SKC,0.00,VWS V14.01,2013-05-01 03:48:00,
2013-04-30 23:53:00,60.0,54.2,30.02,SE,134,2.0,3.0,81,0.00,,SKC,0.00,VWS V14.01,2013-05-01 03:53:00,
2013-04-30 23:58:00,59.7,53.9,30.02,SE,133,2.0,3.0,81,0.00,,SKC,0.00,VWS V14.01,2013-05-01 03:58:00,